<?xml version="1.0" encoding="UTF-8" standalone="no" ?>
<gpx xmlns="http://www.topografix.com/GPX/1/1" xmlns:xsi="http://www.w3.org/2001/XMLSchema-instance" xsi:schemaLocation="http://www.topografix.com/GPX/1/1 http://www.topografix.com/GPX/1/1/gpx.xsd" version="1.1" creator="VisuGPX - https://www.visugpx.com">
  <metadata>
    <name>Tour de France 2019</name>
    <desc><![CDATA[4272km en 2 mois en tandem avec notre petit chien dans le panier avant]]></desc>
  </metadata>
  <trk>
    <name><![CDATA[Tracé 20191002-091155]]></name>
    <trkseg>
      <trkpt lat="47.09617" lon="5.48166">
        <ele>240.474</ele>
        <time>2019-10-02T07:17:25Z</time>
      </trkpt>
      <trkpt lat="47.09598" lon="5.48338">
        <ele>237.488</ele>
        <time>2019-10-02T07:17:55Z</time>
      </trkpt>
      <trkpt lat="47.09543" lon="5.48459">
        <ele>237.454</ele>
        <time>2019-10-02T07:18:25Z</time>
      </trkpt>
      <trkpt lat="47.09402" lon="5.48637">
        <ele>239.672</ele>
        <time>2019-10-02T07:18:58Z</time>
      </trkpt>
      <trkpt lat="47.09316" lon="5.48791">
        <ele>235.541</ele>
        <time>2019-10-02T07:19:28Z</time>
      </trkpt>
      <trkpt lat="47.09224" lon="5.48981">
        <ele>231.897</ele>
        <time>2019-10-02T07:19:58Z</time>
      </trkpt>
      <trkpt lat="47.09159" lon="5.4914">
        <ele>229.452</ele>
        <time>2019-10-02T07:20:28Z</time>
      </trkpt>
      <trkpt lat="47.0911" lon="5.49108">
        <ele>226.999</ele>
        <time>2019-10-02T07:21:04Z</time>
      </trkpt>
      <trkpt lat="47.09165" lon="5.49172">
        <ele>218.961</ele>
        <time>2019-10-02T07:21:43Z</time>
      </trkpt>
      <trkpt lat="47.09245" lon="5.49274">
        <ele>222.094</ele>
        <time>2019-10-02T07:22:13Z</time>
      </trkpt>
      <trkpt lat="47.09181" lon="5.49285">
        <ele>230.502</ele>
        <time>2019-10-02T07:22:49Z</time>
      </trkpt>
      <trkpt lat="47.09098" lon="5.49323">
        <ele>221.6</ele>
        <time>2019-10-02T07:23:19Z</time>
      </trkpt>
      <trkpt lat="47.0909" lon="5.49335">
        <ele>220.637</ele>
        <time>2019-10-02T07:28:28Z</time>
      </trkpt>
      <trkpt lat="47.0902" lon="5.49362">
        <ele>215.571</ele>
        <time>2019-10-02T07:29:37Z</time>
      </trkpt>
      <trkpt lat="47.08928" lon="5.49402">
        <ele>209.181</ele>
        <time>2019-10-02T07:30:07Z</time>
      </trkpt>
      <trkpt lat="47.08858" lon="5.49282">
        <ele>203.363</ele>
        <time>2019-10-02T07:30:37Z</time>
      </trkpt>
      <trkpt lat="47.08804" lon="5.49156">
        <ele>200.164</ele>
        <time>2019-10-02T07:31:10Z</time>
      </trkpt>
      <trkpt lat="47.0871" lon="5.4902">
        <ele>200.085</ele>
        <time>2019-10-02T07:31:40Z</time>
      </trkpt>
      <trkpt lat="47.08639" lon="5.48858">
        <ele>204.336</ele>
        <time>2019-10-02T07:32:10Z</time>
      </trkpt>
      <trkpt lat="47.08564" lon="5.48689">
        <ele>205.041</ele>
        <time>2019-10-02T07:32:40Z</time>
      </trkpt>
      <trkpt lat="47.0847" lon="5.48542">
        <ele>206.546</ele>
        <time>2019-10-02T07:33:10Z</time>
      </trkpt>
      <trkpt lat="47.08376" lon="5.48384">
        <ele>207.184</ele>
        <time>2019-10-02T07:33:40Z</time>
      </trkpt>
      <trkpt lat="47.08261" lon="5.48246">
        <ele>206.428</ele>
        <time>2019-10-02T07:34:10Z</time>
      </trkpt>
      <trkpt lat="47.0815" lon="5.48076">
        <ele>206.493</ele>
        <time>2019-10-02T07:34:43Z</time>
      </trkpt>
      <trkpt lat="47.08036" lon="5.47957">
        <ele>203.869</ele>
        <time>2019-10-02T07:35:13Z</time>
      </trkpt>
      <trkpt lat="47.07926" lon="5.47788">
        <ele>200.806</ele>
        <time>2019-10-02T07:35:43Z</time>
      </trkpt>
      <trkpt lat="47.07814" lon="5.47617">
        <ele>204.167</ele>
        <time>2019-10-02T07:36:13Z</time>
      </trkpt>
      <trkpt lat="47.07714" lon="5.47461">
        <ele>197.134</ele>
        <time>2019-10-02T07:36:43Z</time>
      </trkpt>
      <trkpt lat="47.07613" lon="5.47301">
        <ele>197.441</ele>
        <time>2019-10-02T07:37:13Z</time>
      </trkpt>
      <trkpt lat="47.07469" lon="5.47176">
        <ele>200.151</ele>
        <time>2019-10-02T07:37:46Z</time>
      </trkpt>
      <trkpt lat="47.07339" lon="5.47071">
        <ele>200.997</ele>
        <time>2019-10-02T07:38:16Z</time>
      </trkpt>
      <trkpt lat="47.07213" lon="5.46968">
        <ele>197.759</ele>
        <time>2019-10-02T07:38:46Z</time>
      </trkpt>
      <trkpt lat="47.07093" lon="5.46859">
        <ele>197.195</ele>
        <time>2019-10-02T07:39:16Z</time>
      </trkpt>
      <trkpt lat="47.06961" lon="5.46757">
        <ele>198.613</ele>
        <time>2019-10-02T07:39:46Z</time>
      </trkpt>
      <trkpt lat="47.06833" lon="5.46655">
        <ele>197.14</ele>
        <time>2019-10-02T07:40:16Z</time>
      </trkpt>
      <trkpt lat="47.06692" lon="5.46558">
        <ele>199.396</ele>
        <time>2019-10-02T07:40:46Z</time>
      </trkpt>
      <trkpt lat="47.06553" lon="5.46449">
        <ele>199.286</ele>
        <time>2019-10-02T07:41:19Z</time>
      </trkpt>
      <trkpt lat="47.06423" lon="5.46349">
        <ele>196.519</ele>
        <time>2019-10-02T07:41:49Z</time>
      </trkpt>
      <trkpt lat="47.06301" lon="5.46242">
        <ele>197.546</ele>
        <time>2019-10-02T07:42:19Z</time>
      </trkpt>
      <trkpt lat="47.06161" lon="5.46152">
        <ele>198.661</ele>
        <time>2019-10-02T07:42:49Z</time>
      </trkpt>
      <trkpt lat="47.0605" lon="5.46038">
        <ele>197.459</ele>
        <time>2019-10-02T07:43:19Z</time>
      </trkpt>
      <trkpt lat="47.05992" lon="5.4584">
        <ele>196.694</ele>
        <time>2019-10-02T07:43:49Z</time>
      </trkpt>
      <trkpt lat="47.05929" lon="5.4564">
        <ele>199.349</ele>
        <time>2019-10-02T07:44:22.001Z</time>
      </trkpt>
      <trkpt lat="47.05871" lon="5.45457">
        <ele>201.273</ele>
        <time>2019-10-02T07:44:52.001Z</time>
      </trkpt>
      <trkpt lat="47.05807" lon="5.45259">
        <ele>200.886</ele>
        <time>2019-10-02T07:45:22.001Z</time>
      </trkpt>
      <trkpt lat="47.05747" lon="5.45069">
        <ele>199.963</ele>
        <time>2019-10-02T07:45:52.001Z</time>
      </trkpt>
      <trkpt lat="47.05688" lon="5.44874">
        <ele>196.736</ele>
        <time>2019-10-02T07:46:22.001Z</time>
      </trkpt>
      <trkpt lat="47.05631" lon="5.44689">
        <ele>194.499</ele>
        <time>2019-10-02T07:46:52.001Z</time>
      </trkpt>
      <trkpt lat="47.05569" lon="5.44492">
        <ele>196.069</ele>
        <time>2019-10-02T07:47:22.001Z</time>
      </trkpt>
      <trkpt lat="47.0559" lon="5.44292">
        <ele>196.567</ele>
        <time>2019-10-02T07:47:55.001Z</time>
      </trkpt>
      <trkpt lat="47.05706" lon="5.4415">
        <ele>198.548</ele>
        <time>2019-10-02T07:48:25.001Z</time>
      </trkpt>
      <trkpt lat="47.05824" lon="5.44001">
        <ele>198.487</ele>
        <time>2019-10-02T07:48:55.001Z</time>
      </trkpt>
      <trkpt lat="47.05934" lon="5.43849">
        <ele>198.719</ele>
        <time>2019-10-02T07:49:25.001Z</time>
      </trkpt>
      <trkpt lat="47.05972" lon="5.43672">
        <ele>196.344</ele>
        <time>2019-10-02T07:49:55.001Z</time>
      </trkpt>
      <trkpt lat="47.0597" lon="5.43451">
        <ele>194.867</ele>
        <time>2019-10-02T07:50:25.001Z</time>
      </trkpt>
      <trkpt lat="47.05969" lon="5.43234">
        <ele>195.771</ele>
        <time>2019-10-02T07:50:58.001Z</time>
      </trkpt>
      <trkpt lat="47.05969" lon="5.43037">
        <ele>196.681</ele>
        <time>2019-10-02T07:51:28.001Z</time>
      </trkpt>
      <trkpt lat="47.05965" lon="5.42842">
        <ele>198.98</ele>
        <time>2019-10-02T07:51:58.001Z</time>
      </trkpt>
      <trkpt lat="47.05966" lon="5.42676">
        <ele>200.886</ele>
        <time>2019-10-02T07:52:28.001Z</time>
      </trkpt>
      <trkpt lat="47.05941" lon="5.42497">
        <ele>200.344</ele>
        <time>2019-10-02T07:52:58.001Z</time>
      </trkpt>
      <trkpt lat="47.05944" lon="5.42296">
        <ele>199.765</ele>
        <time>2019-10-02T07:53:28.001Z</time>
      </trkpt>
      <trkpt lat="47.05945" lon="5.42083">
        <ele>197.54</ele>
        <time>2019-10-02T07:53:58.001Z</time>
      </trkpt>
      <trkpt lat="47.05944" lon="5.41851">
        <ele>199.348</ele>
        <time>2019-10-02T07:54:31.001Z</time>
      </trkpt>
      <trkpt lat="47.05942" lon="5.41641">
        <ele>199.037</ele>
        <time>2019-10-02T07:55:01.001Z</time>
      </trkpt>
      <trkpt lat="47.05939" lon="5.41436">
        <ele>201.898</ele>
        <time>2019-10-02T07:55:31.001Z</time>
      </trkpt>
      <trkpt lat="47.05945" lon="5.41269">
        <ele>202.573</ele>
        <time>2019-10-02T07:56:01.001Z</time>
      </trkpt>
      <trkpt lat="47.06062" lon="5.41324">
        <ele>203.371</ele>
        <time>2019-10-02T07:56:31.001Z</time>
      </trkpt>
      <trkpt lat="47.06149" lon="5.4138">
        <ele>213.394</ele>
        <time>2019-10-02T07:57:01.001Z</time>
      </trkpt>
      <trkpt lat="47.06232" lon="5.41485">
        <ele>213.13</ele>
        <time>2019-10-02T07:57:34.001Z</time>
      </trkpt>
      <trkpt lat="47.063" lon="5.41578">
        <ele>215.697</ele>
        <time>2019-10-02T07:58:04.001Z</time>
      </trkpt>
      <trkpt lat="47.06394" lon="5.41588">
        <ele>225.813</ele>
        <time>2019-10-02T07:58:34.001Z</time>
      </trkpt>
      <trkpt lat="47.06495" lon="5.41545">
        <ele>227.443</ele>
        <time>2019-10-02T07:59:04.001Z</time>
      </trkpt>
      <trkpt lat="47.06562" lon="5.4152">
        <ele>223.596</ele>
        <time>2019-10-02T08:08:16Z</time>
      </trkpt>
      <trkpt lat="47.06697" lon="5.41475">
        <ele>221.768</ele>
        <time>2019-10-02T08:08:46.001Z</time>
      </trkpt>
      <trkpt lat="47.06829" lon="5.41405">
        <ele>219.967</ele>
        <time>2019-10-02T08:09:19.001Z</time>
      </trkpt>
      <trkpt lat="47.06977" lon="5.4134">
        <ele>222.172</ele>
        <time>2019-10-02T08:09:49.001Z</time>
      </trkpt>
      <trkpt lat="47.07122" lon="5.41247">
        <ele>218.452</ele>
        <time>2019-10-02T08:10:19.001Z</time>
      </trkpt>
      <trkpt lat="47.07284" lon="5.4128">
        <ele>216.611</ele>
        <time>2019-10-02T08:10:49.001Z</time>
      </trkpt>
      <trkpt lat="47.07412" lon="5.41303">
        <ele>219.042</ele>
        <time>2019-10-02T08:11:19.001Z</time>
      </trkpt>
      <trkpt lat="47.0754" lon="5.41175">
        <ele>219.538</ele>
        <time>2019-10-02T08:11:49.001Z</time>
      </trkpt>
      <trkpt lat="47.07442" lon="5.41018">
        <ele>214.636</ele>
        <time>2019-10-02T08:12:19.001Z</time>
      </trkpt>
      <trkpt lat="47.07526" lon="5.40827">
        <ele>209.014</ele>
        <time>2019-10-02T08:12:52.001Z</time>
      </trkpt>
      <trkpt lat="47.07568" lon="5.4058">
        <ele>201.73</ele>
        <time>2019-10-02T08:13:22.001Z</time>
      </trkpt>
      <trkpt lat="47.07596" lon="5.40393">
        <ele>201.16</ele>
        <time>2019-10-02T08:13:52.001Z</time>
      </trkpt>
      <trkpt lat="47.0762" lon="5.402">
        <ele>202.307</ele>
        <time>2019-10-02T08:14:22.001Z</time>
      </trkpt>
      <trkpt lat="47.07643" lon="5.39991">
        <ele>210.042</ele>
        <time>2019-10-02T08:14:52.001Z</time>
      </trkpt>
      <trkpt lat="47.07677" lon="5.39769">
        <ele>207.176</ele>
        <time>2019-10-02T08:15:22.001Z</time>
      </trkpt>
      <trkpt lat="47.07717" lon="5.39425">
        <ele>203.332</ele>
        <time>2019-10-02T08:15:55.001Z</time>
      </trkpt>
      <trkpt lat="47.07749" lon="5.39181">
        <ele>195.671</ele>
        <time>2019-10-02T08:16:25.001Z</time>
      </trkpt>
      <trkpt lat="47.0769" lon="5.38952">
        <ele>192.955</ele>
        <time>2019-10-02T08:16:55.001Z</time>
      </trkpt>
      <trkpt lat="47.07608" lon="5.38733">
        <ele>189.31</ele>
        <time>2019-10-02T08:17:25.001Z</time>
      </trkpt>
      <trkpt lat="47.07575" lon="5.38496">
        <ele>187.007</ele>
        <time>2019-10-02T08:17:55.001Z</time>
      </trkpt>
      <trkpt lat="47.07545" lon="5.38266">
        <ele>189.029</ele>
        <time>2019-10-02T08:18:25.001Z</time>
      </trkpt>
      <trkpt lat="47.07515" lon="5.3803">
        <ele>190.998</ele>
        <time>2019-10-02T08:18:55.001Z</time>
      </trkpt>
      <trkpt lat="47.07496" lon="5.37776">
        <ele>192.684</ele>
        <time>2019-10-02T08:19:28.001Z</time>
      </trkpt>
      <trkpt lat="47.07468" lon="5.37533">
        <ele>191.36</ele>
        <time>2019-10-02T08:19:58.001Z</time>
      </trkpt>
      <trkpt lat="47.07418" lon="5.37303">
        <ele>190.041</ele>
        <time>2019-10-02T08:20:28.001Z</time>
      </trkpt>
      <trkpt lat="47.07311" lon="5.37115">
        <ele>195.246</ele>
        <time>2019-10-02T08:20:58.001Z</time>
      </trkpt>
      <trkpt lat="47.07181" lon="5.37016">
        <ele>196.204</ele>
        <time>2019-10-02T08:21:28.001Z</time>
      </trkpt>
      <trkpt lat="47.07173" lon="5.3686">
        <ele>194.006</ele>
        <time>2019-10-02T08:21:58.001Z</time>
      </trkpt>
      <trkpt lat="47.07249" lon="5.36643">
        <ele>193.958</ele>
        <time>2019-10-02T08:22:31.001Z</time>
      </trkpt>
      <trkpt lat="47.07327" lon="5.36433">
        <ele>189.807</ele>
        <time>2019-10-02T08:23:01.001Z</time>
      </trkpt>
      <trkpt lat="47.0747" lon="5.3633">
        <ele>194.37</ele>
        <time>2019-10-02T08:23:31.001Z</time>
      </trkpt>
      <trkpt lat="47.07618" lon="5.36237">
        <ele>197.8</ele>
        <time>2019-10-02T08:24:01.001Z</time>
      </trkpt>
      <trkpt lat="47.0778" lon="5.3614">
        <ele>194.952</ele>
        <time>2019-10-02T08:24:31.001Z</time>
      </trkpt>
      <trkpt lat="47.07936" lon="5.36042">
        <ele>196.323</ele>
        <time>2019-10-02T08:25:01.001Z</time>
      </trkpt>
      <trkpt lat="47.08092" lon="5.35944">
        <ele>199.491</ele>
        <time>2019-10-02T08:25:31.001Z</time>
      </trkpt>
      <trkpt lat="47.08266" lon="5.35842">
        <ele>195.995</ele>
        <time>2019-10-02T08:26:04.001Z</time>
      </trkpt>
      <trkpt lat="47.08379" lon="5.35687">
        <ele>193.547</ele>
        <time>2019-10-02T08:26:34.001Z</time>
      </trkpt>
      <trkpt lat="47.0841" lon="5.35502">
        <ele>194.522</ele>
        <time>2019-10-02T08:27:04.001Z</time>
      </trkpt>
      <trkpt lat="47.08448" lon="5.3529">
        <ele>191.704</ele>
        <time>2019-10-02T08:27:34.001Z</time>
      </trkpt>
      <trkpt lat="47.08484" lon="5.35083">
        <ele>191.96</ele>
        <time>2019-10-02T08:28:04.001Z</time>
      </trkpt>
      <trkpt lat="47.0852" lon="5.34869">
        <ele>192.43</ele>
        <time>2019-10-02T08:28:34.001Z</time>
      </trkpt>
      <trkpt lat="47.08561" lon="5.34642">
        <ele>190.855</ele>
        <time>2019-10-02T08:29:07.001Z</time>
      </trkpt>
      <trkpt lat="47.08598" lon="5.3444">
        <ele>191.47</ele>
        <time>2019-10-02T08:29:37.001Z</time>
      </trkpt>
      <trkpt lat="47.08633" lon="5.34236">
        <ele>189.79</ele>
        <time>2019-10-02T08:30:07.001Z</time>
      </trkpt>
      <trkpt lat="47.08665" lon="5.34035">
        <ele>192.593</ele>
        <time>2019-10-02T08:30:37.001Z</time>
      </trkpt>
      <trkpt lat="47.08695" lon="5.3384">
        <ele>190.061</ele>
        <time>2019-10-02T08:31:07.001Z</time>
      </trkpt>
      <trkpt lat="47.08763" lon="5.33655">
        <ele>192.949</ele>
        <time>2019-10-02T08:31:37.001Z</time>
      </trkpt>
      <trkpt lat="47.08819" lon="5.3346">
        <ele>190.475</ele>
        <time>2019-10-02T08:32:07.001Z</time>
      </trkpt>
      <trkpt lat="47.08827" lon="5.33241">
        <ele>190.133</ele>
        <time>2019-10-02T08:32:40.001Z</time>
      </trkpt>
      <trkpt lat="47.08835" lon="5.33023">
        <ele>193.633</ele>
        <time>2019-10-02T08:33:10.001Z</time>
      </trkpt>
      <trkpt lat="47.08884" lon="5.32841">
        <ele>195.011</ele>
        <time>2019-10-02T08:33:40.001Z</time>
      </trkpt>
      <trkpt lat="47.09008" lon="5.32758">
        <ele>198.574</ele>
        <time>2019-10-02T08:34:10.001Z</time>
      </trkpt>
      <trkpt lat="47.09133" lon="5.32654">
        <ele>198.423</ele>
        <time>2019-10-02T08:34:40.001Z</time>
      </trkpt>
      <trkpt lat="47.09248" lon="5.32543">
        <ele>194.08</ele>
        <time>2019-10-02T08:35:10.001Z</time>
      </trkpt>
      <trkpt lat="47.09406" lon="5.32514">
        <ele>190.363</ele>
        <time>2019-10-02T08:35:43.001Z</time>
      </trkpt>
      <trkpt lat="47.09546" lon="5.32531">
        <ele>187.979</ele>
        <time>2019-10-02T08:36:13.001Z</time>
      </trkpt>
      <trkpt lat="47.09683" lon="5.32498">
        <ele>186.615</ele>
        <time>2019-10-02T08:36:43.001Z</time>
      </trkpt>
      <trkpt lat="47.09697" lon="5.32298">
        <ele>186.36</ele>
        <time>2019-10-02T08:37:13.001Z</time>
      </trkpt>
      <trkpt lat="47.09765" lon="5.32107">
        <ele>190.281</ele>
        <time>2019-10-02T08:37:43.001Z</time>
      </trkpt>
      <trkpt lat="47.09875" lon="5.31999">
        <ele>196.352</ele>
        <time>2019-10-02T08:38:13.001Z</time>
      </trkpt>
      <trkpt lat="47.09995" lon="5.31906">
        <ele>189.637</ele>
        <time>2019-10-02T08:38:43.001Z</time>
      </trkpt>
      <trkpt lat="47.10105" lon="5.31726">
        <ele>189.128</ele>
        <time>2019-10-02T08:39:16Z</time>
      </trkpt>
      <trkpt lat="47.10242" lon="5.31662">
        <ele>191.265</ele>
        <time>2019-10-02T08:39:46.001Z</time>
      </trkpt>
      <trkpt lat="47.10393" lon="5.31633">
        <ele>185.563</ele>
        <time>2019-10-02T08:40:16Z</time>
      </trkpt>
      <trkpt lat="47.10537" lon="5.31592">
        <ele>184.724</ele>
        <time>2019-10-02T08:40:46.001Z</time>
      </trkpt>
      <trkpt lat="47.10691" lon="5.31521">
        <ele>186.282</ele>
        <time>2019-10-02T08:41:16Z</time>
      </trkpt>
      <trkpt lat="47.10771" lon="5.31369">
        <ele>189.012</ele>
        <time>2019-10-02T08:41:46.001Z</time>
      </trkpt>
      <trkpt lat="47.1076" lon="5.31249">
        <ele>186.519</ele>
        <time>2019-10-02T08:42:19.001Z</time>
      </trkpt>
      <trkpt lat="47.10731" lon="5.31039">
        <ele>181.788</ele>
        <time>2019-10-02T08:42:49.001Z</time>
      </trkpt>
      <trkpt lat="47.10703" lon="5.30834">
        <ele>180.96</ele>
        <time>2019-10-02T08:43:19.001Z</time>
      </trkpt>
      <trkpt lat="47.10665" lon="5.3064">
        <ele>184.388</ele>
        <time>2019-10-02T08:43:49.001Z</time>
      </trkpt>
      <trkpt lat="47.10598" lon="5.30462">
        <ele>185.466</ele>
        <time>2019-10-02T08:44:19.001Z</time>
      </trkpt>
      <trkpt lat="47.10512" lon="5.30302">
        <ele>185.021</ele>
        <time>2019-10-02T08:44:49.001Z</time>
      </trkpt>
      <trkpt lat="47.10396" lon="5.30195">
        <ele>186.394</ele>
        <time>2019-10-02T08:45:19.001Z</time>
      </trkpt>
      <trkpt lat="47.10274" lon="5.30049">
        <ele>186.471</ele>
        <time>2019-10-02T08:45:52.001Z</time>
      </trkpt>
      <trkpt lat="47.1019" lon="5.29887">
        <ele>185.285</ele>
        <time>2019-10-02T08:46:22.001Z</time>
      </trkpt>
      <trkpt lat="47.10147" lon="5.29713">
        <ele>184.477</ele>
        <time>2019-10-02T08:46:52.001Z</time>
      </trkpt>
      <trkpt lat="47.10146" lon="5.29617">
        <ele>184.494</ele>
        <time>2019-10-02T08:51:04.001Z</time>
      </trkpt>
      <trkpt lat="47.10142" lon="5.29439">
        <ele>182.554</ele>
        <time>2019-10-02T08:51:34.001Z</time>
      </trkpt>
      <trkpt lat="47.10154" lon="5.29264">
        <ele>180.662</ele>
        <time>2019-10-02T08:52:04.001Z</time>
      </trkpt>
      <trkpt lat="47.10174" lon="5.29066">
        <ele>180.855</ele>
        <time>2019-10-02T08:52:37.001Z</time>
      </trkpt>
      <trkpt lat="47.10196" lon="5.28891">
        <ele>181.424</ele>
        <time>2019-10-02T08:53:07.001Z</time>
      </trkpt>
      <trkpt lat="47.10219" lon="5.28713">
        <ele>182.44</ele>
        <time>2019-10-02T08:53:37.001Z</time>
      </trkpt>
      <trkpt lat="47.10221" lon="5.28519">
        <ele>182.263</ele>
        <time>2019-10-02T08:54:07.001Z</time>
      </trkpt>
      <trkpt lat="47.10203" lon="5.28336">
        <ele>181.687</ele>
        <time>2019-10-02T08:54:37.001Z</time>
      </trkpt>
      <trkpt lat="47.10179" lon="5.28166">
        <ele>180.997</ele>
        <time>2019-10-02T08:55:07.001Z</time>
      </trkpt>
      <trkpt lat="47.10154" lon="5.27996">
        <ele>183.242</ele>
        <time>2019-10-02T08:55:37.001Z</time>
      </trkpt>
      <trkpt lat="47.10127" lon="5.27807">
        <ele>181.53</ele>
        <time>2019-10-02T08:56:10.001Z</time>
      </trkpt>
      <trkpt lat="47.10086" lon="5.27632">
        <ele>180.819</ele>
        <time>2019-10-02T08:56:40.001Z</time>
      </trkpt>
      <trkpt lat="47.10068" lon="5.27445">
        <ele>182.259</ele>
        <time>2019-10-02T08:57:10.001Z</time>
      </trkpt>
      <trkpt lat="47.10039" lon="5.27258">
        <ele>184.222</ele>
        <time>2019-10-02T08:57:40.001Z</time>
      </trkpt>
      <trkpt lat="47.10002" lon="5.27075">
        <ele>181.142</ele>
        <time>2019-10-02T08:58:10.001Z</time>
      </trkpt>
      <trkpt lat="47.0996" lon="5.26901">
        <ele>183.335</ele>
        <time>2019-10-02T08:58:40.001Z</time>
      </trkpt>
      <trkpt lat="47.09936" lon="5.26685">
        <ele>184.091</ele>
        <time>2019-10-02T08:59:13.001Z</time>
      </trkpt>
      <trkpt lat="47.09963" lon="5.26492">
        <ele>183.757</ele>
        <time>2019-10-02T08:59:43.001Z</time>
      </trkpt>
      <trkpt lat="47.09969" lon="5.26333">
        <ele>187.571</ele>
        <time>2019-10-02T09:00:13.001Z</time>
      </trkpt>
      <trkpt lat="47.09982" lon="5.26217">
        <ele>187.808</ele>
        <time>2019-10-02T09:00:55.001Z</time>
      </trkpt>
      <trkpt lat="47.09889" lon="5.26161">
        <ele>188.357</ele>
        <time>2019-10-02T09:01:25.001Z</time>
      </trkpt>
      <trkpt lat="47.09808" lon="5.26142">
        <ele>190.942</ele>
        <time>2019-10-02T09:03:31.001Z</time>
      </trkpt>
      <trkpt lat="47.09685" lon="5.26114">
        <ele>188.623</ele>
        <time>2019-10-02T09:04:01.001Z</time>
      </trkpt>
      <trkpt lat="47.09561" lon="5.26086">
        <ele>183.475</ele>
        <time>2019-10-02T09:04:34.001Z</time>
      </trkpt>
      <trkpt lat="47.09443" lon="5.26053">
        <ele>178.177</ele>
        <time>2019-10-02T09:05:04.001Z</time>
      </trkpt>
      <trkpt lat="47.09361" lon="5.26033">
        <ele>179.124</ele>
        <time>2019-10-02T09:05:49.001Z</time>
      </trkpt>
      <trkpt lat="47.09243" lon="5.26006">
        <ele>183.688</ele>
        <time>2019-10-02T09:06:19.001Z</time>
      </trkpt>
      <trkpt lat="47.09112" lon="5.25972">
        <ele>184.638</ele>
        <time>2019-10-02T09:06:49.001Z</time>
      </trkpt>
      <trkpt lat="47.0899" lon="5.25941">
        <ele>182.071</ele>
        <time>2019-10-02T09:07:19.001Z</time>
      </trkpt>
      <trkpt lat="47.08869" lon="5.2587">
        <ele>182.734</ele>
        <time>2019-10-02T09:07:52.001Z</time>
      </trkpt>
      <trkpt lat="47.08817" lon="5.25727">
        <ele>187.904</ele>
        <time>2019-10-02T09:08:22.001Z</time>
      </trkpt>
      <trkpt lat="47.08732" lon="5.25616">
        <ele>186.188</ele>
        <time>2019-10-02T09:08:52.001Z</time>
      </trkpt>
      <trkpt lat="47.08671" lon="5.25514">
        <ele>188.222</ele>
        <time>2019-10-02T09:09:22.001Z</time>
      </trkpt>
      <trkpt lat="47.08577" lon="5.25274">
        <ele>184.184</ele>
        <time>2019-10-02T09:09:52.001Z</time>
      </trkpt>
      <trkpt lat="47.08446" lon="5.25132">
        <ele>181.721</ele>
        <time>2019-10-02T09:10:22.001Z</time>
      </trkpt>
      <trkpt lat="47.08344" lon="5.24995">
        <ele>181.754</ele>
        <time>2019-10-02T09:10:52.001Z</time>
      </trkpt>
      <trkpt lat="47.08194" lon="5.24901">
        <ele>183.046</ele>
        <time>2019-10-02T09:11:25.001Z</time>
      </trkpt>
      <trkpt lat="47.08047" lon="5.24794">
        <ele>184.635</ele>
        <time>2019-10-02T09:11:55.001Z</time>
      </trkpt>
      <trkpt lat="47.07973" lon="5.24601">
        <ele>182.124</ele>
        <time>2019-10-02T09:12:25.001Z</time>
      </trkpt>
      <trkpt lat="47.07933" lon="5.24395">
        <ele>181.459</ele>
        <time>2019-10-02T09:12:55.001Z</time>
      </trkpt>
      <trkpt lat="47.07901" lon="5.24214">
        <ele>183.215</ele>
        <time>2019-10-02T09:13:25.001Z</time>
      </trkpt>
      <trkpt lat="47.07844" lon="5.24056">
        <ele>184.534</ele>
        <time>2019-10-02T09:13:55.001Z</time>
      </trkpt>
      <trkpt lat="47.07728" lon="5.23908">
        <ele>181.859</ele>
        <time>2019-10-02T09:14:28.001Z</time>
      </trkpt>
      <trkpt lat="47.07648" lon="5.23725">
        <ele>180.22</ele>
        <time>2019-10-02T09:14:58.001Z</time>
      </trkpt>
      <trkpt lat="47.07589" lon="5.23566">
        <ele>181.757</ele>
        <time>2019-10-02T09:15:28.001Z</time>
      </trkpt>
      <trkpt lat="47.07538" lon="5.23412">
        <ele>183.73</ele>
        <time>2019-10-02T09:15:58.001Z</time>
      </trkpt>
      <trkpt lat="47.07497" lon="5.23251">
        <ele>183.598</ele>
        <time>2019-10-02T09:16:28.001Z</time>
      </trkpt>
      <trkpt lat="47.07463" lon="5.23082">
        <ele>185.273</ele>
        <time>2019-10-02T09:16:58.001Z</time>
      </trkpt>
      <trkpt lat="47.07434" lon="5.22916">
        <ele>182.573</ele>
        <time>2019-10-02T09:17:28.001Z</time>
      </trkpt>
      <trkpt lat="47.07395" lon="5.22718">
        <ele>182.706</ele>
        <time>2019-10-02T09:18:01.001Z</time>
      </trkpt>
      <trkpt lat="47.0737" lon="5.22538">
        <ele>184.043</ele>
        <time>2019-10-02T09:18:31.001Z</time>
      </trkpt>
      <trkpt lat="47.07328" lon="5.22351">
        <ele>184.588</ele>
        <time>2019-10-02T09:19:01.001Z</time>
      </trkpt>
      <trkpt lat="47.07283" lon="5.22179">
        <ele>183.164</ele>
        <time>2019-10-02T09:19:31.001Z</time>
      </trkpt>
      <trkpt lat="47.07229" lon="5.22011">
        <ele>181.004</ele>
        <time>2019-10-02T09:20:01.001Z</time>
      </trkpt>
      <trkpt lat="47.07169" lon="5.21851">
        <ele>182.198</ele>
        <time>2019-10-02T09:20:31.001Z</time>
      </trkpt>
      <trkpt lat="47.07131" lon="5.2176">
        <ele>182.578</ele>
        <time>2019-10-02T09:22:31.001Z</time>
      </trkpt>
      <trkpt lat="47.07051" lon="5.21635">
        <ele>181.905</ele>
        <time>2019-10-02T09:23:01.001Z</time>
      </trkpt>
      <trkpt lat="47.0694" lon="5.21506">
        <ele>183.215</ele>
        <time>2019-10-02T09:23:31.001Z</time>
      </trkpt>
      <trkpt lat="47.06828" lon="5.21378">
        <ele>182.875</ele>
        <time>2019-10-02T09:24:01.001Z</time>
      </trkpt>
      <trkpt lat="47.06723" lon="5.21256">
        <ele>183.222</ele>
        <time>2019-10-02T09:24:31.001Z</time>
      </trkpt>
      <trkpt lat="47.06619" lon="5.21142">
        <ele>182.564</ele>
        <time>2019-10-02T09:25:01.001Z</time>
      </trkpt>
      <trkpt lat="47.06501" lon="5.21049">
        <ele>181.744</ele>
        <time>2019-10-02T09:25:31.001Z</time>
      </trkpt>
      <trkpt lat="47.06365" lon="5.20959">
        <ele>181.517</ele>
        <time>2019-10-02T09:26:04.001Z</time>
      </trkpt>
      <trkpt lat="47.06255" lon="5.20886">
        <ele>182.317</ele>
        <time>2019-10-02T09:26:34.001Z</time>
      </trkpt>
      <trkpt lat="47.06137" lon="5.2083">
        <ele>182.704</ele>
        <time>2019-10-02T09:27:04.001Z</time>
      </trkpt>
      <trkpt lat="47.06054" lon="5.20808">
        <ele>184.156</ele>
        <time>2019-10-02T09:28:04.001Z</time>
      </trkpt>
      <trkpt lat="47.06106" lon="5.20706">
        <ele>184.27</ele>
        <time>2019-10-02T09:28:40.001Z</time>
      </trkpt>
      <trkpt lat="47.06165" lon="5.20546">
        <ele>185.435</ele>
        <time>2019-10-02T09:29:10.001Z</time>
      </trkpt>
      <trkpt lat="47.06155" lon="5.20335">
        <ele>186.346</ele>
        <time>2019-10-02T09:29:43.001Z</time>
      </trkpt>
      <trkpt lat="47.06117" lon="5.20156">
        <ele>183.035</ele>
        <time>2019-10-02T09:30:13.001Z</time>
      </trkpt>
      <trkpt lat="47.06134" lon="5.19999">
        <ele>183.297</ele>
        <time>2019-10-02T09:30:43.001Z</time>
      </trkpt>
      <trkpt lat="47.06217" lon="5.19887">
        <ele>186.093</ele>
        <time>2019-10-02T09:31:13.001Z</time>
      </trkpt>
      <trkpt lat="47.06311" lon="5.19761">
        <ele>186.355</ele>
        <time>2019-10-02T09:31:43.001Z</time>
      </trkpt>
      <trkpt lat="47.06375" lon="5.19641">
        <ele>185.649</ele>
        <time>2019-10-02T09:32:13.001Z</time>
      </trkpt>
      <trkpt lat="47.0626" lon="5.19533">
        <ele>183.644</ele>
        <time>2019-10-02T09:32:46.001Z</time>
      </trkpt>
      <trkpt lat="47.06155" lon="5.19432">
        <ele>185.116</ele>
        <time>2019-10-02T09:33:16Z</time>
      </trkpt>
      <trkpt lat="47.06049" lon="5.19324">
        <ele>184.598</ele>
        <time>2019-10-02T09:33:46.001Z</time>
      </trkpt>
      <trkpt lat="47.05947" lon="5.19227">
        <ele>185.149</ele>
        <time>2019-10-02T09:34:16Z</time>
      </trkpt>
      <trkpt lat="47.05855" lon="5.19135">
        <ele>184.355</ele>
        <time>2019-10-02T09:34:46.001Z</time>
      </trkpt>
      <trkpt lat="47.05748" lon="5.19026">
        <ele>185.183</ele>
        <time>2019-10-02T09:35:16Z</time>
      </trkpt>
      <trkpt lat="47.05655" lon="5.18929">
        <ele>181.897</ele>
        <time>2019-10-02T09:35:46.001Z</time>
      </trkpt>
      <trkpt lat="47.05545" lon="5.18819">
        <ele>185.731</ele>
        <time>2019-10-02T09:36:19.001Z</time>
      </trkpt>
      <trkpt lat="47.05441" lon="5.18738">
        <ele>183.944</ele>
        <time>2019-10-02T09:36:49.001Z</time>
      </trkpt>
      <trkpt lat="47.05328" lon="5.18837">
        <ele>185.415</ele>
        <time>2019-10-02T09:37:19.001Z</time>
      </trkpt>
      <trkpt lat="47.05248" lon="5.1887">
        <ele>183.373</ele>
        <time>2019-10-02T09:37:49.001Z</time>
      </trkpt>
      <trkpt lat="47.05311" lon="5.18793">
        <ele>187.002</ele>
        <time>2019-10-02T09:40:01.001Z</time>
      </trkpt>
      <trkpt lat="47.05385" lon="5.1871">
        <ele>187.493</ele>
        <time>2019-10-02T09:40:31.001Z</time>
      </trkpt>
      <trkpt lat="47.05467" lon="5.18618">
        <ele>192.486</ele>
        <time>2019-10-02T09:41:04.001Z</time>
      </trkpt>
      <trkpt lat="47.05578" lon="5.18518">
        <ele>190.274</ele>
        <time>2019-10-02T09:41:34.001Z</time>
      </trkpt>
      <trkpt lat="47.05539" lon="5.18678">
        <ele>186.361</ele>
        <time>2019-10-02T09:42:04.001Z</time>
      </trkpt>
      <trkpt lat="47.05652" lon="5.18797">
        <ele>183.983</ele>
        <time>2019-10-02T09:42:34.001Z</time>
      </trkpt>
      <trkpt lat="47.05763" lon="5.18911">
        <ele>185.766</ele>
        <time>2019-10-02T09:43:04.001Z</time>
      </trkpt>
      <trkpt lat="47.05874" lon="5.19023">
        <ele>186.622</ele>
        <time>2019-10-02T09:43:34.001Z</time>
      </trkpt>
      <trkpt lat="47.05986" lon="5.19134">
        <ele>185.906</ele>
        <time>2019-10-02T09:44:04.001Z</time>
      </trkpt>
      <trkpt lat="47.06107" lon="5.19251">
        <ele>184.622</ele>
        <time>2019-10-02T09:44:37.001Z</time>
      </trkpt>
      <trkpt lat="47.06218" lon="5.19358">
        <ele>184.876</ele>
        <time>2019-10-02T09:45:07.001Z</time>
      </trkpt>
      <trkpt lat="47.06334" lon="5.19471">
        <ele>186.134</ele>
        <time>2019-10-02T09:45:37.001Z</time>
      </trkpt>
      <trkpt lat="47.06367" lon="5.19362">
        <ele>187.415</ele>
        <time>2019-10-02T09:46:07.001Z</time>
      </trkpt>
      <trkpt lat="47.0638" lon="5.19153">
        <ele>185.97</ele>
        <time>2019-10-02T09:46:37.001Z</time>
      </trkpt>
      <trkpt lat="47.06417" lon="5.18964">
        <ele>187.973</ele>
        <time>2019-10-02T09:47:07.001Z</time>
      </trkpt>
      <trkpt lat="47.06452" lon="5.18754">
        <ele>189.477</ele>
        <time>2019-10-02T09:47:40.001Z</time>
      </trkpt>
      <trkpt lat="47.06462" lon="5.18552">
        <ele>189.88</ele>
        <time>2019-10-02T09:48:10.001Z</time>
      </trkpt>
      <trkpt lat="47.06436" lon="5.18341">
        <ele>184.07</ele>
        <time>2019-10-02T09:48:40.001Z</time>
      </trkpt>
      <trkpt lat="47.0641" lon="5.18155">
        <ele>183.575</ele>
        <time>2019-10-02T09:49:10.001Z</time>
      </trkpt>
      <trkpt lat="47.06377" lon="5.17952">
        <ele>183.004</ele>
        <time>2019-10-02T09:49:40.001Z</time>
      </trkpt>
      <trkpt lat="47.0635" lon="5.17762">
        <ele>181.915</ele>
        <time>2019-10-02T09:50:10.001Z</time>
      </trkpt>
      <trkpt lat="47.06322" lon="5.17614">
        <ele>181.558</ele>
        <time>2019-10-02T09:50:40.001Z</time>
      </trkpt>
      <trkpt lat="47.06315" lon="5.17627">
        <ele>181.74</ele>
        <time>2019-10-02T09:54:16Z</time>
      </trkpt>
      <trkpt lat="47.06313" lon="5.17612">
        <ele>181.607</ele>
        <time>2019-10-02T09:57:13.001Z</time>
      </trkpt>
      <trkpt lat="47.06313" lon="5.1763">
        <ele>179.573</ele>
        <time>2019-10-02T10:00:16Z</time>
      </trkpt>
      <trkpt lat="47.06309" lon="5.17688">
        <ele>177.757</ele>
        <time>2019-10-02T10:01:13.001Z</time>
      </trkpt>
      <trkpt lat="47.06309" lon="5.17691">
        <ele>178.169</ele>
        <time>2019-10-02T10:36:40.001Z</time>
      </trkpt>
      <trkpt lat="47.06305" lon="5.17693">
        <ele>179.237</ele>
        <time>2019-10-02T11:04:55.001Z</time>
      </trkpt>
      <trkpt lat="47.06315" lon="5.17627">
        <ele>178.7</ele>
        <time>2019-10-02T11:05:55.001Z</time>
      </trkpt>
      <trkpt lat="47.06267" lon="5.17587">
        <ele>179.964</ele>
        <time>2019-10-02T11:16:16Z</time>
      </trkpt>
      <trkpt lat="47.06245" lon="5.17478">
        <ele>185.784</ele>
        <time>2019-10-02T11:16:49.001Z</time>
      </trkpt>
      <trkpt lat="47.06178" lon="5.17393">
        <ele>186.438</ele>
        <time>2019-10-02T11:17:19.001Z</time>
      </trkpt>
      <trkpt lat="47.06208" lon="5.17263">
        <ele>183.333</ele>
        <time>2019-10-02T11:19:52.001Z</time>
      </trkpt>
      <trkpt lat="47.06231" lon="5.17131">
        <ele>184.126</ele>
        <time>2019-10-02T11:20:22.001Z</time>
      </trkpt>
      <trkpt lat="47.06142" lon="5.16981">
        <ele>180.819</ele>
        <time>2019-10-02T11:20:52.001Z</time>
      </trkpt>
      <trkpt lat="47.06124" lon="5.16779">
        <ele>175.812</ele>
        <time>2019-10-02T11:21:25.001Z</time>
      </trkpt>
      <trkpt lat="47.0611" lon="5.1661">
        <ele>174.395</ele>
        <time>2019-10-02T11:21:55.001Z</time>
      </trkpt>
      <trkpt lat="47.06095" lon="5.16448">
        <ele>175.646</ele>
        <time>2019-10-02T11:22:25.001Z</time>
      </trkpt>
      <trkpt lat="47.06086" lon="5.16277">
        <ele>176.543</ele>
        <time>2019-10-02T11:22:55.001Z</time>
      </trkpt>
      <trkpt lat="47.0605" lon="5.16108">
        <ele>177.201</ele>
        <time>2019-10-02T11:23:25.001Z</time>
      </trkpt>
      <trkpt lat="47.06039" lon="5.15916">
        <ele>177.964</ele>
        <time>2019-10-02T11:23:55.001Z</time>
      </trkpt>
      <trkpt lat="47.06078" lon="5.15728">
        <ele>176.748</ele>
        <time>2019-10-02T11:24:28.001Z</time>
      </trkpt>
      <trkpt lat="47.06127" lon="5.15557">
        <ele>176.489</ele>
        <time>2019-10-02T11:24:58.001Z</time>
      </trkpt>
      <trkpt lat="47.0618" lon="5.15384">
        <ele>177.248</ele>
        <time>2019-10-02T11:25:28.001Z</time>
      </trkpt>
      <trkpt lat="47.0625" lon="5.15222">
        <ele>175.355</ele>
        <time>2019-10-02T11:25:58.001Z</time>
      </trkpt>
      <trkpt lat="47.06315" lon="5.1506">
        <ele>177.58</ele>
        <time>2019-10-02T11:26:28.001Z</time>
      </trkpt>
      <trkpt lat="47.06298" lon="5.14867">
        <ele>176.894</ele>
        <time>2019-10-02T11:26:58.001Z</time>
      </trkpt>
      <trkpt lat="47.0634" lon="5.14663">
        <ele>179.456</ele>
        <time>2019-10-02T11:27:28.001Z</time>
      </trkpt>
      <trkpt lat="47.06285" lon="5.14492">
        <ele>179.854</ele>
        <time>2019-10-02T11:28:01.001Z</time>
      </trkpt>
      <trkpt lat="47.06148" lon="5.14416">
        <ele>180.542</ele>
        <time>2019-10-02T11:28:31.001Z</time>
      </trkpt>
      <trkpt lat="47.06035" lon="5.14331">
        <ele>182.244</ele>
        <time>2019-10-02T11:29:01.001Z</time>
      </trkpt>
      <trkpt lat="47.05916" lon="5.14247">
        <ele>183.106</ele>
        <time>2019-10-02T11:29:31.001Z</time>
      </trkpt>
      <trkpt lat="47.0592" lon="5.14256">
        <ele>183.68</ele>
        <time>2019-10-02T11:30:01.001Z</time>
      </trkpt>
      <trkpt lat="47.0586" lon="5.14374">
        <ele>180.873</ele>
        <time>2019-10-02T11:30:31.001Z</time>
      </trkpt>
      <trkpt lat="47.05709" lon="5.1437">
        <ele>181.095</ele>
        <time>2019-10-02T11:31:04.001Z</time>
      </trkpt>
      <trkpt lat="47.0557" lon="5.14399">
        <ele>178.983</ele>
        <time>2019-10-02T11:31:34.001Z</time>
      </trkpt>
      <trkpt lat="47.05423" lon="5.14405">
        <ele>179.825</ele>
        <time>2019-10-02T11:32:04.001Z</time>
      </trkpt>
      <trkpt lat="47.05261" lon="5.1441">
        <ele>178.836</ele>
        <time>2019-10-02T11:32:34.001Z</time>
      </trkpt>
      <trkpt lat="47.05118" lon="5.14388">
        <ele>180.4</ele>
        <time>2019-10-02T11:33:04.001Z</time>
      </trkpt>
      <trkpt lat="47.04964" lon="5.14429">
        <ele>180.359</ele>
        <time>2019-10-02T11:33:34.001Z</time>
      </trkpt>
      <trkpt lat="47.04822" lon="5.14492">
        <ele>182.098</ele>
        <time>2019-10-02T11:34:04.001Z</time>
      </trkpt>
      <trkpt lat="47.04661" lon="5.14575">
        <ele>189.539</ele>
        <time>2019-10-02T11:34:37.001Z</time>
      </trkpt>
      <trkpt lat="47.04516" lon="5.14657">
        <ele>197.367</ele>
        <time>2019-10-02T11:35:07.001Z</time>
      </trkpt>
      <trkpt lat="47.04363" lon="5.14737">
        <ele>184.649</ele>
        <time>2019-10-02T11:35:37.001Z</time>
      </trkpt>
      <trkpt lat="47.04214" lon="5.14821">
        <ele>180.942</ele>
        <time>2019-10-02T11:36:07.001Z</time>
      </trkpt>
      <trkpt lat="47.04057" lon="5.14861">
        <ele>178.846</ele>
        <time>2019-10-02T11:36:37.001Z</time>
      </trkpt>
      <trkpt lat="47.0391" lon="5.14941">
        <ele>178.664</ele>
        <time>2019-10-02T11:37:07.001Z</time>
      </trkpt>
      <trkpt lat="47.03735" lon="5.14914">
        <ele>178.272</ele>
        <time>2019-10-02T11:37:40.001Z</time>
      </trkpt>
      <trkpt lat="47.03579" lon="5.14887">
        <ele>179.243</ele>
        <time>2019-10-02T11:38:10.001Z</time>
      </trkpt>
      <trkpt lat="47.03425" lon="5.14898">
        <ele>179.727</ele>
        <time>2019-10-02T11:38:40.001Z</time>
      </trkpt>
      <trkpt lat="47.0327" lon="5.14857">
        <ele>181.233</ele>
        <time>2019-10-02T11:39:10.001Z</time>
      </trkpt>
      <trkpt lat="47.03104" lon="5.14802">
        <ele>176.813</ele>
        <time>2019-10-02T11:39:40.001Z</time>
      </trkpt>
      <trkpt lat="47.02959" lon="5.14763">
        <ele>179.816</ele>
        <time>2019-10-02T11:40:10.001Z</time>
      </trkpt>
      <trkpt lat="47.02809" lon="5.14734">
        <ele>178.894</ele>
        <time>2019-10-02T11:40:40.001Z</time>
      </trkpt>
      <trkpt lat="47.02693" lon="5.14602">
        <ele>177.914</ele>
        <time>2019-10-02T11:41:13.001Z</time>
      </trkpt>
      <trkpt lat="47.02593" lon="5.14464">
        <ele>181.288</ele>
        <time>2019-10-02T11:41:43.001Z</time>
      </trkpt>
      <trkpt lat="47.02501" lon="5.14432">
        <ele>187.229</ele>
        <time>2019-10-02T11:42:13.001Z</time>
      </trkpt>
      <trkpt lat="47.02416" lon="5.14477">
        <ele>191.262</ele>
        <time>2019-10-02T11:42:43.001Z</time>
      </trkpt>
      <trkpt lat="47.0228" lon="5.14567">
        <ele>187.005</ele>
        <time>2019-10-02T11:43:13.001Z</time>
      </trkpt>
      <trkpt lat="47.02071" lon="5.14765">
        <ele>175.853</ele>
        <time>2019-10-02T11:43:43.001Z</time>
      </trkpt>
      <trkpt lat="47.01995" lon="5.1493">
        <ele>178.271</ele>
        <time>2019-10-02T11:46:58.001Z</time>
      </trkpt>
      <trkpt lat="47.01932" lon="5.14928">
        <ele>180.914</ele>
        <time>2019-10-02T11:47:28.001Z</time>
      </trkpt>
      <trkpt lat="47.01813" lon="5.14889">
        <ele>181.731</ele>
        <time>2019-10-02T11:47:58.001Z</time>
      </trkpt>
      <trkpt lat="47.01689" lon="5.14873">
        <ele>181.074</ele>
        <time>2019-10-02T11:48:28.001Z</time>
      </trkpt>
      <trkpt lat="47.01593" lon="5.14953">
        <ele>185.322</ele>
        <time>2019-10-02T11:48:58.001Z</time>
      </trkpt>
      <trkpt lat="47.01485" lon="5.15047">
        <ele>186.99</ele>
        <time>2019-10-02T11:49:28.001Z</time>
      </trkpt>
      <trkpt lat="47.0133" lon="5.1507">
        <ele>180.431</ele>
        <time>2019-10-02T11:49:58.001Z</time>
      </trkpt>
      <trkpt lat="47.01154" lon="5.15065">
        <ele>177.067</ele>
        <time>2019-10-02T11:50:31.001Z</time>
      </trkpt>
      <trkpt lat="47.01002" lon="5.15053">
        <ele>178.088</ele>
        <time>2019-10-02T11:51:01.001Z</time>
      </trkpt>
      <trkpt lat="47.00851" lon="5.15031">
        <ele>177.341</ele>
        <time>2019-10-02T11:51:31.001Z</time>
      </trkpt>
      <trkpt lat="47.00716" lon="5.14953">
        <ele>177.589</ele>
        <time>2019-10-02T11:52:01.001Z</time>
      </trkpt>
      <trkpt lat="47.0061" lon="5.14873">
        <ele>180.478</ele>
        <time>2019-10-02T11:52:31.001Z</time>
      </trkpt>
      <trkpt lat="47.00493" lon="5.14783">
        <ele>181.537</ele>
        <time>2019-10-02T11:53:01.001Z</time>
      </trkpt>
      <trkpt lat="47.00348" lon="5.14694">
        <ele>179.965</ele>
        <time>2019-10-02T11:53:34.001Z</time>
      </trkpt>
      <trkpt lat="47.00252" lon="5.14646">
        <ele>179.227</ele>
        <time>2019-10-02T11:54:04.001Z</time>
      </trkpt>
      <trkpt lat="47.00264" lon="5.14469">
        <ele>179.661</ele>
        <time>2019-10-02T11:54:34.001Z</time>
      </trkpt>
      <trkpt lat="47.00209" lon="5.14332">
        <ele>180.396</ele>
        <time>2019-10-02T11:55:04.001Z</time>
      </trkpt>
      <trkpt lat="47.00068" lon="5.14357">
        <ele>179.579</ele>
        <time>2019-10-02T11:55:34.001Z</time>
      </trkpt>
      <trkpt lat="46.99942" lon="5.14426">
        <ele>182.292</ele>
        <time>2019-10-02T11:56:04.001Z</time>
      </trkpt>
      <trkpt lat="46.9983" lon="5.14435">
        <ele>185.788</ele>
        <time>2019-10-02T11:56:34.001Z</time>
      </trkpt>
      <trkpt lat="46.99651" lon="5.14527">
        <ele>181.207</ele>
        <time>2019-10-02T11:57:07.001Z</time>
      </trkpt>
      <trkpt lat="46.99515" lon="5.14642">
        <ele>178.298</ele>
        <time>2019-10-02T11:57:37.001Z</time>
      </trkpt>
      <trkpt lat="46.99369" lon="5.14742">
        <ele>180.282</ele>
        <time>2019-10-02T11:58:07.001Z</time>
      </trkpt>
      <trkpt lat="46.99204" lon="5.14697">
        <ele>180.371</ele>
        <time>2019-10-02T11:58:37.001Z</time>
      </trkpt>
      <trkpt lat="46.99073" lon="5.146">
        <ele>180.293</ele>
        <time>2019-10-02T11:59:07.001Z</time>
      </trkpt>
      <trkpt lat="46.98939" lon="5.14514">
        <ele>179.141</ele>
        <time>2019-10-02T11:59:37.001Z</time>
      </trkpt>
      <trkpt lat="46.98783" lon="5.14493">
        <ele>179.174</ele>
        <time>2019-10-02T12:00:10.001Z</time>
      </trkpt>
      <trkpt lat="46.98659" lon="5.14387">
        <ele>176.374</ele>
        <time>2019-10-02T12:00:40.001Z</time>
      </trkpt>
      <trkpt lat="46.98592" lon="5.14218">
        <ele>175.893</ele>
        <time>2019-10-02T12:01:10.001Z</time>
      </trkpt>
      <trkpt lat="46.98527" lon="5.14051">
        <ele>175.663</ele>
        <time>2019-10-02T12:01:40.001Z</time>
      </trkpt>
      <trkpt lat="46.98449" lon="5.13889">
        <ele>176.469</ele>
        <time>2019-10-02T12:02:10.001Z</time>
      </trkpt>
      <trkpt lat="46.9836" lon="5.13739">
        <ele>175.067</ele>
        <time>2019-10-02T12:02:40.001Z</time>
      </trkpt>
      <trkpt lat="46.98265" lon="5.13646">
        <ele>179.898</ele>
        <time>2019-10-02T12:03:10.001Z</time>
      </trkpt>
      <trkpt lat="46.98116" lon="5.1353">
        <ele>177.366</ele>
        <time>2019-10-02T12:03:43.001Z</time>
      </trkpt>
      <trkpt lat="46.97989" lon="5.13428">
        <ele>175.701</ele>
        <time>2019-10-02T12:04:13.001Z</time>
      </trkpt>
      <trkpt lat="46.97864" lon="5.13329">
        <ele>176.199</ele>
        <time>2019-10-02T12:04:43.001Z</time>
      </trkpt>
      <trkpt lat="46.97768" lon="5.13253">
        <ele>181.713</ele>
        <time>2019-10-02T12:05:16Z</time>
      </trkpt>
      <trkpt lat="46.97627" lon="5.1318">
        <ele>176.455</ele>
        <time>2019-10-02T12:05:46.001Z</time>
      </trkpt>
      <trkpt lat="46.97496" lon="5.13112">
        <ele>177.197</ele>
        <time>2019-10-02T12:06:16Z</time>
      </trkpt>
      <trkpt lat="46.97387" lon="5.12973">
        <ele>176.547</ele>
        <time>2019-10-02T12:06:49.001Z</time>
      </trkpt>
      <trkpt lat="46.97318" lon="5.128">
        <ele>172.661</ele>
        <time>2019-10-02T12:07:19.001Z</time>
      </trkpt>
      <trkpt lat="46.97289" lon="5.12613">
        <ele>174.396</ele>
        <time>2019-10-02T12:07:49.001Z</time>
      </trkpt>
      <trkpt lat="46.97277" lon="5.12427">
        <ele>175.771</ele>
        <time>2019-10-02T12:08:19.001Z</time>
      </trkpt>
      <trkpt lat="46.97242" lon="5.12228">
        <ele>176.223</ele>
        <time>2019-10-02T12:08:49.001Z</time>
      </trkpt>
      <trkpt lat="46.97156" lon="5.12073">
        <ele>176.024</ele>
        <time>2019-10-02T12:09:19.001Z</time>
      </trkpt>
      <trkpt lat="46.97012" lon="5.11995">
        <ele>174.499</ele>
        <time>2019-10-02T12:09:52.001Z</time>
      </trkpt>
      <trkpt lat="46.96888" lon="5.1196">
        <ele>177.022</ele>
        <time>2019-10-02T12:10:22.001Z</time>
      </trkpt>
      <trkpt lat="46.9675" lon="5.11941">
        <ele>176.393</ele>
        <time>2019-10-02T12:10:52.001Z</time>
      </trkpt>
      <trkpt lat="46.96614" lon="5.11953">
        <ele>176.201</ele>
        <time>2019-10-02T12:11:22.001Z</time>
      </trkpt>
      <trkpt lat="46.96477" lon="5.12005">
        <ele>175.867</ele>
        <time>2019-10-02T12:11:52.001Z</time>
      </trkpt>
      <trkpt lat="46.96346" lon="5.12096">
        <ele>176.952</ele>
        <time>2019-10-02T12:12:22.001Z</time>
      </trkpt>
      <trkpt lat="46.96208" lon="5.1215">
        <ele>174.435</ele>
        <time>2019-10-02T12:12:52.001Z</time>
      </trkpt>
      <trkpt lat="46.96072" lon="5.12091">
        <ele>175.803</ele>
        <time>2019-10-02T12:13:25.001Z</time>
      </trkpt>
      <trkpt lat="46.95986" lon="5.12005">
        <ele>181.421</ele>
        <time>2019-10-02T12:13:55.001Z</time>
      </trkpt>
      <trkpt lat="46.95866" lon="5.1199">
        <ele>179.437</ele>
        <time>2019-10-02T12:14:25.001Z</time>
      </trkpt>
      <trkpt lat="46.95777" lon="5.12136">
        <ele>178.82</ele>
        <time>2019-10-02T12:14:55.001Z</time>
      </trkpt>
      <trkpt lat="46.95729" lon="5.12336">
        <ele>179.532</ele>
        <time>2019-10-02T12:15:25.001Z</time>
      </trkpt>
      <trkpt lat="46.95597" lon="5.12407">
        <ele>179.073</ele>
        <time>2019-10-02T12:15:55.001Z</time>
      </trkpt>
      <trkpt lat="46.95458" lon="5.12422">
        <ele>180.462</ele>
        <time>2019-10-02T12:16:28.001Z</time>
      </trkpt>
      <trkpt lat="46.95358" lon="5.12419">
        <ele>184.149</ele>
        <time>2019-10-02T12:16:58.001Z</time>
      </trkpt>
      <trkpt lat="46.95258" lon="5.12414">
        <ele>187.647</ele>
        <time>2019-10-02T12:17:28.001Z</time>
      </trkpt>
      <trkpt lat="46.95155" lon="5.12393">
        <ele>189.159</ele>
        <time>2019-10-02T12:17:58.001Z</time>
      </trkpt>
      <trkpt lat="46.95037" lon="5.12354">
        <ele>189.19</ele>
        <time>2019-10-02T12:18:28.001Z</time>
      </trkpt>
      <trkpt lat="46.94944" lon="5.12289">
        <ele>188.369</ele>
        <time>2019-10-02T12:18:58.001Z</time>
      </trkpt>
      <trkpt lat="46.94817" lon="5.12178">
        <ele>189.601</ele>
        <time>2019-10-02T12:19:28.001Z</time>
      </trkpt>
      <trkpt lat="46.94717" lon="5.11996">
        <ele>188.855</ele>
        <time>2019-10-02T12:20:01.001Z</time>
      </trkpt>
      <trkpt lat="46.94667" lon="5.11812">
        <ele>186.691</ele>
        <time>2019-10-02T12:20:31.001Z</time>
      </trkpt>
      <trkpt lat="46.94578" lon="5.11664">
        <ele>186.85</ele>
        <time>2019-10-02T12:21:01.001Z</time>
      </trkpt>
      <trkpt lat="46.9451" lon="5.11494">
        <ele>185.501</ele>
        <time>2019-10-02T12:21:31.001Z</time>
      </trkpt>
      <trkpt lat="46.94473" lon="5.11277">
        <ele>184.895</ele>
        <time>2019-10-02T12:22:01.001Z</time>
      </trkpt>
      <trkpt lat="46.94439" lon="5.11074">
        <ele>183.795</ele>
        <time>2019-10-02T12:22:31.001Z</time>
      </trkpt>
      <trkpt lat="46.94367" lon="5.1087">
        <ele>182.599</ele>
        <time>2019-10-02T12:23:04.001Z</time>
      </trkpt>
      <trkpt lat="46.94325" lon="5.10674">
        <ele>182.685</ele>
        <time>2019-10-02T12:23:34.001Z</time>
      </trkpt>
      <trkpt lat="46.94298" lon="5.10493">
        <ele>182.58</ele>
        <time>2019-10-02T12:24:04.001Z</time>
      </trkpt>
      <trkpt lat="46.94252" lon="5.10342">
        <ele>186.649</ele>
        <time>2019-10-02T12:24:34.001Z</time>
      </trkpt>
      <trkpt lat="46.94207" lon="5.10202">
        <ele>189.741</ele>
        <time>2019-10-02T12:25:04.001Z</time>
      </trkpt>
      <trkpt lat="46.94148" lon="5.10031">
        <ele>187.75</ele>
        <time>2019-10-02T12:25:34.001Z</time>
      </trkpt>
      <trkpt lat="46.9407" lon="5.09872">
        <ele>185.64</ele>
        <time>2019-10-02T12:26:04.001Z</time>
      </trkpt>
      <trkpt lat="46.93963" lon="5.09666">
        <ele>183.976</ele>
        <time>2019-10-02T12:26:37.001Z</time>
      </trkpt>
      <trkpt lat="46.93855" lon="5.09478">
        <ele>181.851</ele>
        <time>2019-10-02T12:27:07.001Z</time>
      </trkpt>
      <trkpt lat="46.93715" lon="5.09481">
        <ele>180.592</ele>
        <time>2019-10-02T12:27:37.001Z</time>
      </trkpt>
      <trkpt lat="46.93549" lon="5.09426">
        <ele>178.133</ele>
        <time>2019-10-02T12:28:07.001Z</time>
      </trkpt>
      <trkpt lat="46.93489" lon="5.09397">
        <ele>176.794</ele>
        <time>2019-10-02T12:30:25.002Z</time>
      </trkpt>
      <trkpt lat="46.93356" lon="5.09404">
        <ele>178.335</ele>
        <time>2019-10-02T12:30:55.001Z</time>
      </trkpt>
      <trkpt lat="46.93198" lon="5.0943">
        <ele>177.994</ele>
        <time>2019-10-02T12:31:28.001Z</time>
      </trkpt>
      <trkpt lat="46.93055" lon="5.09435">
        <ele>178.953</ele>
        <time>2019-10-02T12:31:58.001Z</time>
      </trkpt>
      <trkpt lat="46.93006" lon="5.0942">
        <ele>177.93</ele>
        <time>2019-10-02T12:34:43.001Z</time>
      </trkpt>
      <trkpt lat="46.9289" lon="5.09376">
        <ele>178.469</ele>
        <time>2019-10-02T12:35:13.001Z</time>
      </trkpt>
      <trkpt lat="46.92757" lon="5.09307">
        <ele>178.083</ele>
        <time>2019-10-02T12:35:43.001Z</time>
      </trkpt>
      <trkpt lat="46.92634" lon="5.09207">
        <ele>179.226</ele>
        <time>2019-10-02T12:36:13.001Z</time>
      </trkpt>
      <trkpt lat="46.925" lon="5.09132">
        <ele>179.319</ele>
        <time>2019-10-02T12:36:43.001Z</time>
      </trkpt>
      <trkpt lat="46.92368" lon="5.09009">
        <ele>179.988</ele>
        <time>2019-10-02T12:37:16Z</time>
      </trkpt>
      <trkpt lat="46.92271" lon="5.08873">
        <ele>177.664</ele>
        <time>2019-10-02T12:37:46.001Z</time>
      </trkpt>
      <trkpt lat="46.92141" lon="5.08793">
        <ele>179.824</ele>
        <time>2019-10-02T12:38:16Z</time>
      </trkpt>
      <trkpt lat="46.91991" lon="5.08794">
        <ele>179.612</ele>
        <time>2019-10-02T12:38:46.001Z</time>
      </trkpt>
      <trkpt lat="46.91827" lon="5.08826">
        <ele>177.94</ele>
        <time>2019-10-02T12:39:16Z</time>
      </trkpt>
      <trkpt lat="46.91674" lon="5.08811">
        <ele>175.69</ele>
        <time>2019-10-02T12:39:46.001Z</time>
      </trkpt>
      <trkpt lat="46.91532" lon="5.08772">
        <ele>178.759</ele>
        <time>2019-10-02T12:40:19.001Z</time>
      </trkpt>
      <trkpt lat="46.91419" lon="5.08659">
        <ele>177.523</ele>
        <time>2019-10-02T12:40:49.001Z</time>
      </trkpt>
      <trkpt lat="46.91313" lon="5.08544">
        <ele>179.422</ele>
        <time>2019-10-02T12:41:19.001Z</time>
      </trkpt>
      <trkpt lat="46.912" lon="5.08434">
        <ele>181.531</ele>
        <time>2019-10-02T12:41:49.001Z</time>
      </trkpt>
      <trkpt lat="46.91074" lon="5.08342">
        <ele>179.84</ele>
        <time>2019-10-02T12:42:19.001Z</time>
      </trkpt>
      <trkpt lat="46.90934" lon="5.08293">
        <ele>178.08</ele>
        <time>2019-10-02T12:42:49.001Z</time>
      </trkpt>
      <trkpt lat="46.9079" lon="5.08182">
        <ele>177.592</ele>
        <time>2019-10-02T12:43:19.001Z</time>
      </trkpt>
      <trkpt lat="46.90631" lon="5.08109">
        <ele>179.775</ele>
        <time>2019-10-02T12:43:52.001Z</time>
      </trkpt>
      <trkpt lat="46.90496" lon="5.08097">
        <ele>178.576</ele>
        <time>2019-10-02T12:44:22.001Z</time>
      </trkpt>
      <trkpt lat="46.904" lon="5.08268">
        <ele>175.364</ele>
        <time>2019-10-02T12:44:52.001Z</time>
      </trkpt>
      <trkpt lat="46.90295" lon="5.08282">
        <ele>179.252</ele>
        <time>2019-10-02T12:45:22.001Z</time>
      </trkpt>
      <trkpt lat="46.90177" lon="5.08132">
        <ele>181.517</ele>
        <time>2019-10-02T12:45:52.001Z</time>
      </trkpt>
      <trkpt lat="46.90079" lon="5.07949">
        <ele>178.661</ele>
        <time>2019-10-02T12:46:22.001Z</time>
      </trkpt>
      <trkpt lat="46.89979" lon="5.07751">
        <ele>178.453</ele>
        <time>2019-10-02T12:46:55.001Z</time>
      </trkpt>
      <trkpt lat="46.89908" lon="5.07579">
        <ele>178.187</ele>
        <time>2019-10-02T12:47:25.001Z</time>
      </trkpt>
      <trkpt lat="46.89917" lon="5.07436">
        <ele>179.11</ele>
        <time>2019-10-02T12:47:55.001Z</time>
      </trkpt>
      <trkpt lat="46.89945" lon="5.07268">
        <ele>180.545</ele>
        <time>2019-10-02T12:48:25.001Z</time>
      </trkpt>
      <trkpt lat="46.89999" lon="5.07097">
        <ele>178.724</ele>
        <time>2019-10-02T12:48:55.001Z</time>
      </trkpt>
      <trkpt lat="46.89992" lon="5.06915">
        <ele>177.564</ele>
        <time>2019-10-02T12:49:25.001Z</time>
      </trkpt>
      <trkpt lat="46.89985" lon="5.06734">
        <ele>175.664</ele>
        <time>2019-10-02T12:49:55.001Z</time>
      </trkpt>
      <trkpt lat="46.89978" lon="5.06539">
        <ele>174.051</ele>
        <time>2019-10-02T12:50:28.001Z</time>
      </trkpt>
      <trkpt lat="46.89973" lon="5.06366">
        <ele>173.722</ele>
        <time>2019-10-02T12:50:58.001Z</time>
      </trkpt>
      <trkpt lat="46.89968" lon="5.06195">
        <ele>172.917</ele>
        <time>2019-10-02T12:51:28.001Z</time>
      </trkpt>
      <trkpt lat="46.89964" lon="5.06028">
        <ele>173.53</ele>
        <time>2019-10-02T12:51:58.001Z</time>
      </trkpt>
      <trkpt lat="46.89957" lon="5.05853">
        <ele>172.834</ele>
        <time>2019-10-02T12:52:28.001Z</time>
      </trkpt>
      <trkpt lat="46.89952" lon="5.0568">
        <ele>173.224</ele>
        <time>2019-10-02T12:52:58.001Z</time>
      </trkpt>
      <trkpt lat="46.89921" lon="5.05493">
        <ele>172.029</ele>
        <time>2019-10-02T12:53:31.001Z</time>
      </trkpt>
      <trkpt lat="46.89885" lon="5.05332">
        <ele>170.845</ele>
        <time>2019-10-02T12:54:01.001Z</time>
      </trkpt>
      <trkpt lat="46.89849" lon="5.05176">
        <ele>171.423</ele>
        <time>2019-10-02T12:54:31.001Z</time>
      </trkpt>
      <trkpt lat="46.89821" lon="5.05017">
        <ele>171.115</ele>
        <time>2019-10-02T12:55:01.001Z</time>
      </trkpt>
      <trkpt lat="46.89794" lon="5.04857">
        <ele>171.87</ele>
        <time>2019-10-02T12:55:31.001Z</time>
      </trkpt>
      <trkpt lat="46.89761" lon="5.04709">
        <ele>173.004</ele>
        <time>2019-10-02T12:56:01.001Z</time>
      </trkpt>
      <trkpt lat="46.89728" lon="5.04558">
        <ele>173.319</ele>
        <time>2019-10-02T12:56:31.001Z</time>
      </trkpt>
      <trkpt lat="46.89689" lon="5.04373">
        <ele>172.539</ele>
        <time>2019-10-02T12:57:04.001Z</time>
      </trkpt>
      <trkpt lat="46.89653" lon="5.04201">
        <ele>173.714</ele>
        <time>2019-10-02T12:57:34.001Z</time>
      </trkpt>
      <trkpt lat="46.89616" lon="5.04022">
        <ele>172.711</ele>
        <time>2019-10-02T12:58:04.001Z</time>
      </trkpt>
      <trkpt lat="46.89586" lon="5.03858">
        <ele>172.413</ele>
        <time>2019-10-02T12:58:34.001Z</time>
      </trkpt>
      <trkpt lat="46.8956" lon="5.03695">
        <ele>182.151</ele>
        <time>2019-10-02T12:59:04.001Z</time>
      </trkpt>
      <trkpt lat="46.89535" lon="5.03503">
        <ele>186.018</ele>
        <time>2019-10-02T12:59:34.001Z</time>
      </trkpt>
      <trkpt lat="46.89517" lon="5.03283">
        <ele>179.761</ele>
        <time>2019-10-02T13:00:07.001Z</time>
      </trkpt>
      <trkpt lat="46.89543" lon="5.03103">
        <ele>179.127</ele>
        <time>2019-10-02T13:00:37.001Z</time>
      </trkpt>
      <trkpt lat="46.896" lon="5.02955">
        <ele>183.47</ele>
        <time>2019-10-02T13:01:07.001Z</time>
      </trkpt>
      <trkpt lat="46.89538" lon="5.02821">
        <ele>179.174</ele>
        <time>2019-10-02T13:01:37.001Z</time>
      </trkpt>
      <trkpt lat="46.89455" lon="5.02721">
        <ele>175.35</ele>
        <time>2019-10-02T13:02:07.001Z</time>
      </trkpt>
      <trkpt lat="46.89449" lon="5.02682">
        <ele>177.78</ele>
        <time>2019-10-02T13:03:22.001Z</time>
      </trkpt>
      <trkpt lat="46.89455" lon="5.02558">
        <ele>177.975</ele>
        <time>2019-10-02T13:03:52.001Z</time>
      </trkpt>
      <trkpt lat="46.89442" lon="5.02427">
        <ele>178.174</ele>
        <time>2019-10-02T13:04:25.001Z</time>
      </trkpt>
      <trkpt lat="46.89365" lon="5.02472">
        <ele>179.966</ele>
        <time>2019-10-02T13:05:34.001Z</time>
      </trkpt>
      <trkpt lat="46.8926" lon="5.02465">
        <ele>171.086</ele>
        <time>2019-10-02T13:06:04.001Z</time>
      </trkpt>
      <trkpt lat="46.89187" lon="5.02473">
        <ele>177.811</ele>
        <time>2019-10-02T13:24:19.001Z</time>
      </trkpt>
      <trkpt lat="46.89291" lon="5.02462">
        <ele>179.896</ele>
        <time>2019-10-02T13:24:49.001Z</time>
      </trkpt>
      <trkpt lat="46.89398" lon="5.02461">
        <ele>183.513</ele>
        <time>2019-10-02T13:25:19.001Z</time>
      </trkpt>
      <trkpt lat="46.89483" lon="5.02405">
        <ele>181.814</ele>
        <time>2019-10-02T13:25:52.001Z</time>
      </trkpt>
      <trkpt lat="46.89492" lon="5.02439">
        <ele>185.557</ele>
        <time>2019-10-02T13:28:40.001Z</time>
      </trkpt>
      <trkpt lat="46.89499" lon="5.02452">
        <ele>183.718</ele>
        <time>2019-10-02T13:30:52.001Z</time>
      </trkpt>
      <trkpt lat="46.89506" lon="5.02456">
        <ele>183.952</ele>
        <time>2019-10-02T15:02:30.001Z</time>
      </trkpt>
      <trkpt lat="46.895" lon="5.02449">
        <ele>180.298</ele>
        <time>2019-10-02T15:14:39.001Z</time>
      </trkpt>
      <trkpt lat="46.8954" lon="5.02428">
        <ele>182.412</ele>
        <time>2019-10-02T15:15:57.001Z</time>
      </trkpt>
      <trkpt lat="46.89649" lon="5.02468">
        <ele>186.916</ele>
        <time>2019-10-02T15:16:27.001Z</time>
      </trkpt>
      <trkpt lat="46.89648" lon="5.02429">
        <ele>189.689</ele>
        <time>2019-10-02T15:21:06.001Z</time>
      </trkpt>
      <trkpt lat="46.89735" lon="5.025">
        <ele>188.775</ele>
        <time>2019-10-02T15:21:39.001Z</time>
      </trkpt>
      <trkpt lat="46.89834" lon="5.02477">
        <ele>186.577</ele>
        <time>2019-10-02T15:22:09.001Z</time>
      </trkpt>
      <trkpt lat="46.89891" lon="5.0241">
        <ele>182.564</ele>
        <time>2019-10-02T15:23:33.001Z</time>
      </trkpt>
      <trkpt lat="46.89984" lon="5.02282">
        <ele>183.693</ele>
        <time>2019-10-02T15:24:03.001Z</time>
      </trkpt>
      <trkpt lat="46.90095" lon="5.0217">
        <ele>182.989</ele>
        <time>2019-10-02T15:24:33.001Z</time>
      </trkpt>
      <trkpt lat="46.9019" lon="5.02222">
        <ele>190.251</ele>
        <time>2019-10-02T15:25:06.001Z</time>
      </trkpt>
      <trkpt lat="46.90288" lon="5.02293">
        <ele>189.707</ele>
        <time>2019-10-02T15:25:36.001Z</time>
      </trkpt>
      <trkpt lat="46.90358" lon="5.02403">
        <ele>177.999</ele>
        <time>2019-10-02T15:26:06.001Z</time>
      </trkpt>
      <trkpt lat="46.90358" lon="5.02186">
        <ele>174.125</ele>
        <time>2019-10-02T15:26:36.001Z</time>
      </trkpt>
      <trkpt lat="46.90433" lon="5.01982">
        <ele>175.33</ele>
        <time>2019-10-02T15:27:06.001Z</time>
      </trkpt>
      <trkpt lat="46.90513" lon="5.01776">
        <ele>176.415</ele>
        <time>2019-10-02T15:27:36.001Z</time>
      </trkpt>
      <trkpt lat="46.90605" lon="5.01588">
        <ele>176.882</ele>
        <time>2019-10-02T15:28:06.001Z</time>
      </trkpt>
      <trkpt lat="46.90709" lon="5.01385">
        <ele>175.238</ele>
        <time>2019-10-02T15:28:39.001Z</time>
      </trkpt>
      <trkpt lat="46.90768" lon="5.01208">
        <ele>176.902</ele>
        <time>2019-10-02T15:29:09.001Z</time>
      </trkpt>
      <trkpt lat="46.90795" lon="5.00984">
        <ele>178.715</ele>
        <time>2019-10-02T15:29:39.001Z</time>
      </trkpt>
      <trkpt lat="46.90785" lon="5.00775">
        <ele>180.45</ele>
        <time>2019-10-02T15:30:09.001Z</time>
      </trkpt>
      <trkpt lat="46.90735" lon="5.00579">
        <ele>179.715</ele>
        <time>2019-10-02T15:30:39.001Z</time>
      </trkpt>
      <trkpt lat="46.90712" lon="5.00384">
        <ele>179.115</ele>
        <time>2019-10-02T15:31:09.001Z</time>
      </trkpt>
      <trkpt lat="46.90755" lon="5.00204">
        <ele>179.214</ele>
        <time>2019-10-02T15:31:42.001Z</time>
      </trkpt>
      <trkpt lat="46.90697" lon="5.00148">
        <ele>183.229</ele>
        <time>2019-10-02T15:32:57.001Z</time>
      </trkpt>
      <trkpt lat="46.90646" lon="5.00081">
        <ele>184.206</ele>
        <time>2019-10-02T15:33:27.001Z</time>
      </trkpt>
      <trkpt lat="46.90563" lon="5.00223">
        <ele>177.946</ele>
        <time>2019-10-02T15:33:57.001Z</time>
      </trkpt>
      <trkpt lat="46.90509" lon="5.00165">
        <ele>178.854</ele>
        <time>2019-10-02T15:34:27.001Z</time>
      </trkpt>
      <trkpt lat="46.90425" lon="5.00014">
        <ele>175.028</ele>
        <time>2019-10-02T15:34:57.001Z</time>
      </trkpt>
      <trkpt lat="46.90359" lon="4.99846">
        <ele>175.411</ele>
        <time>2019-10-02T15:35:27.001Z</time>
      </trkpt>
      <trkpt lat="46.90403" lon="4.99701">
        <ele>176.627</ele>
        <time>2019-10-02T15:36:00Z</time>
      </trkpt>
      <trkpt lat="46.90484" lon="4.99526">
        <ele>178.354</ele>
        <time>2019-10-02T15:36:30.001Z</time>
      </trkpt>
      <trkpt lat="46.90501" lon="4.99311">
        <ele>172.055</ele>
        <time>2019-10-02T15:37:00Z</time>
      </trkpt>
      <trkpt lat="46.90476" lon="4.99106">
        <ele>179.702</ele>
        <time>2019-10-02T15:37:30.001Z</time>
      </trkpt>
      <trkpt lat="46.90437" lon="4.98897">
        <ele>180.263</ele>
        <time>2019-10-02T15:38:00Z</time>
      </trkpt>
      <trkpt lat="46.9038" lon="4.98691">
        <ele>181.287</ele>
        <time>2019-10-02T15:38:30.001Z</time>
      </trkpt>
      <trkpt lat="46.90345" lon="4.98453">
        <ele>176.401</ele>
        <time>2019-10-02T15:39:03.001Z</time>
      </trkpt>
      <trkpt lat="46.90309" lon="4.98255">
        <ele>179.322</ele>
        <time>2019-10-02T15:39:33.001Z</time>
      </trkpt>
      <trkpt lat="46.90306" lon="4.98044">
        <ele>179.637</ele>
        <time>2019-10-02T15:40:03.001Z</time>
      </trkpt>
      <trkpt lat="46.9028" lon="4.97834">
        <ele>182.12</ele>
        <time>2019-10-02T15:40:33.001Z</time>
      </trkpt>
      <trkpt lat="46.90239" lon="4.97667">
        <ele>182.152</ele>
        <time>2019-10-02T15:41:03.001Z</time>
      </trkpt>
      <trkpt lat="46.90188" lon="4.97438">
        <ele>183.374</ele>
        <time>2019-10-02T15:41:33.001Z</time>
      </trkpt>
      <trkpt lat="46.90132" lon="4.97219">
        <ele>177.486</ele>
        <time>2019-10-02T15:42:06.001Z</time>
      </trkpt>
      <trkpt lat="46.90046" lon="4.97093">
        <ele>177.334</ele>
        <time>2019-10-02T15:42:36.001Z</time>
      </trkpt>
      <trkpt lat="46.89863" lon="4.97132">
        <ele>173.234</ele>
        <time>2019-10-02T15:43:06.001Z</time>
      </trkpt>
      <trkpt lat="46.89725" lon="4.97082">
        <ele>172.963</ele>
        <time>2019-10-02T15:43:36.001Z</time>
      </trkpt>
      <trkpt lat="46.89605" lon="4.9691">
        <ele>176.349</ele>
        <time>2019-10-02T15:44:06.001Z</time>
      </trkpt>
      <trkpt lat="46.89508" lon="4.96722">
        <ele>177.551</ele>
        <time>2019-10-02T15:44:36.001Z</time>
      </trkpt>
      <trkpt lat="46.89425" lon="4.9653">
        <ele>177.636</ele>
        <time>2019-10-02T15:45:06.001Z</time>
      </trkpt>
      <trkpt lat="46.89381" lon="4.96275">
        <ele>177.119</ele>
        <time>2019-10-02T15:45:39.001Z</time>
      </trkpt>
      <trkpt lat="46.89365" lon="4.96034">
        <ele>173.357</ele>
        <time>2019-10-02T15:46:09.001Z</time>
      </trkpt>
      <trkpt lat="46.8934" lon="4.95796">
        <ele>173.174</ele>
        <time>2019-10-02T15:46:39.001Z</time>
      </trkpt>
      <trkpt lat="46.89299" lon="4.95573">
        <ele>175.227</ele>
        <time>2019-10-02T15:47:09.001Z</time>
      </trkpt>
      <trkpt lat="46.89218" lon="4.95405">
        <ele>185.326</ele>
        <time>2019-10-02T15:47:39.001Z</time>
      </trkpt>
      <trkpt lat="46.89141" lon="4.9532">
        <ele>188.118</ele>
        <time>2019-10-02T15:48:09.001Z</time>
      </trkpt>
      <trkpt lat="46.8902" lon="4.95242">
        <ele>185.414</ele>
        <time>2019-10-02T15:48:42.001Z</time>
      </trkpt>
      <trkpt lat="46.88927" lon="4.95187">
        <ele>184.228</ele>
        <time>2019-10-02T15:49:12.001Z</time>
      </trkpt>
      <trkpt lat="46.88781" lon="4.95105">
        <ele>177.982</ele>
        <time>2019-10-02T15:49:42.001Z</time>
      </trkpt>
      <trkpt lat="46.88603" lon="4.95045">
        <ele>175.192</ele>
        <time>2019-10-02T15:50:12.001Z</time>
      </trkpt>
      <trkpt lat="46.88459" lon="4.95017">
        <ele>175.782</ele>
        <time>2019-10-02T15:50:42.001Z</time>
      </trkpt>
      <trkpt lat="46.88285" lon="4.95047">
        <ele>173.108</ele>
        <time>2019-10-02T15:51:12.001Z</time>
      </trkpt>
      <trkpt lat="46.8813" lon="4.95128">
        <ele>173.021</ele>
        <time>2019-10-02T15:51:42.001Z</time>
      </trkpt>
      <trkpt lat="46.8799" lon="4.95232">
        <ele>176.191</ele>
        <time>2019-10-02T15:52:15.001Z</time>
      </trkpt>
      <trkpt lat="46.87964" lon="4.95192">
        <ele>179.611</ele>
        <time>2019-10-02T15:55:03.001Z</time>
      </trkpt>
      <trkpt lat="46.87942" lon="4.95021">
        <ele>178.249</ele>
        <time>2019-10-02T15:55:33.001Z</time>
      </trkpt>
      <trkpt lat="46.87902" lon="4.94905">
        <ele>177.07</ele>
        <time>2019-10-02T15:56:03.001Z</time>
      </trkpt>
      <trkpt lat="46.87874" lon="4.94795">
        <ele>176.917</ele>
        <time>2019-10-02T15:56:33.001Z</time>
      </trkpt>
      <trkpt lat="46.87829" lon="4.9467">
        <ele>183.485</ele>
        <time>2019-10-02T15:57:03.001Z</time>
      </trkpt>
      <trkpt lat="46.8775" lon="4.94591">
        <ele>170.99</ele>
        <time>2019-10-02T15:57:36.001Z</time>
      </trkpt>
      <trkpt lat="46.87677" lon="4.94486">
        <ele>172.722</ele>
        <time>2019-10-02T15:58:06.001Z</time>
      </trkpt>
      <trkpt lat="46.87535" lon="4.9453">
        <ele>172.147</ele>
        <time>2019-10-02T15:58:36.001Z</time>
      </trkpt>
      <trkpt lat="46.87387" lon="4.94528">
        <ele>172.213</ele>
        <time>2019-10-02T15:59:06.001Z</time>
      </trkpt>
      <trkpt lat="46.87248" lon="4.94454">
        <ele>175.823</ele>
        <time>2019-10-02T15:59:36.001Z</time>
      </trkpt>
      <trkpt lat="46.87117" lon="4.94314">
        <ele>180.038</ele>
        <time>2019-10-02T16:00:06.001Z</time>
      </trkpt>
      <trkpt lat="46.87" lon="4.94177">
        <ele>186.745</ele>
        <time>2019-10-02T16:00:36.001Z</time>
      </trkpt>
      <trkpt lat="46.86884" lon="4.94">
        <ele>183.569</ele>
        <time>2019-10-02T16:01:09.001Z</time>
      </trkpt>
      <trkpt lat="46.86814" lon="4.93802">
        <ele>183.444</ele>
        <time>2019-10-02T16:01:39.001Z</time>
      </trkpt>
      <trkpt lat="46.86732" lon="4.93594">
        <ele>187.183</ele>
        <time>2019-10-02T16:02:09.001Z</time>
      </trkpt>
      <trkpt lat="46.86679" lon="4.9338">
        <ele>181.13</ele>
        <time>2019-10-02T16:02:39.001Z</time>
      </trkpt>
      <trkpt lat="46.86666" lon="4.93177">
        <ele>184.026</ele>
        <time>2019-10-02T16:03:09.001Z</time>
      </trkpt>
      <trkpt lat="46.86664" lon="4.92975">
        <ele>184.754</ele>
        <time>2019-10-02T16:03:39.001Z</time>
      </trkpt>
      <trkpt lat="46.86641" lon="4.92736">
        <ele>182.075</ele>
        <time>2019-10-02T16:04:12.001Z</time>
      </trkpt>
      <trkpt lat="46.86646" lon="4.9261">
        <ele>183.226</ele>
        <time>2019-10-02T16:05:27.001Z</time>
      </trkpt>
      <trkpt lat="46.86615" lon="4.92764">
        <ele>185.806</ele>
        <time>2019-10-02T16:05:57.001Z</time>
      </trkpt>
      <trkpt lat="46.86423" lon="4.92742">
        <ele>176.304</ele>
        <time>2019-10-02T16:06:27.001Z</time>
      </trkpt>
      <trkpt lat="46.86268" lon="4.92719">
        <ele>174.653</ele>
        <time>2019-10-02T16:06:57.001Z</time>
      </trkpt>
      <trkpt lat="46.86163" lon="4.92569">
        <ele>178.055</ele>
        <time>2019-10-02T16:07:27.001Z</time>
      </trkpt>
      <trkpt lat="46.86168" lon="4.92376">
        <ele>183.817</ele>
        <time>2019-10-02T16:07:57.001Z</time>
      </trkpt>
      <trkpt lat="46.8623" lon="4.92315">
        <ele>180.648</ele>
        <time>2019-10-02T16:08:54.001Z</time>
      </trkpt>
      <trkpt lat="46.8624" lon="4.92318">
        <ele>178.99</ele>
        <time>2019-10-02T16:12:24.001Z</time>
      </trkpt>
      <trkpt lat="46.86231" lon="4.92336">
        <ele>177.967</ele>
        <time>2019-10-02T16:13:57.001Z</time>
      </trkpt>
      <trkpt lat="46.86245" lon="4.92312">
        <ele>172.075</ele>
        <time>2019-10-02T16:14:57.001Z</time>
      </trkpt>
      <trkpt lat="46.86237" lon="4.92312">
        <ele>171.391</ele>
        <time>2019-10-02T16:16:48.001Z</time>
      </trkpt>
      <trkpt lat="46.86227" lon="4.92306">
        <ele>172.6</ele>
        <time>2019-10-02T16:19:00Z</time>
      </trkpt>
      <trkpt lat="46.86237" lon="4.92327">
        <ele>161.342</ele>
        <time>2019-10-02T16:20:15.001Z</time>
      </trkpt>
      <trkpt lat="46.86249" lon="4.92313">
        <ele>158.463</ele>
        <time>2019-10-02T16:22:57.001Z</time>
      </trkpt>
      <trkpt lat="46.86245" lon="4.92325">
        <ele>149.836</ele>
        <time>2019-10-02T16:24:45.001Z</time>
      </trkpt>
      <trkpt lat="46.86241" lon="4.92294">
        <ele>146.511</ele>
        <time>2019-10-02T16:26:19.001Z</time>
      </trkpt>
      <trkpt lat="46.86245" lon="4.92338">
        <ele>179.164</ele>
        <time>2019-10-02T16:29:21.001Z</time>
      </trkpt>
      <trkpt lat="46.86238" lon="4.9233">
        <ele>162.795</ele>
        <time>2019-10-02T16:36:06.001Z</time>
      </trkpt>
      <trkpt lat="46.86243" lon="4.92327">
        <ele>158.995</ele>
        <time>2019-10-02T16:37:21.001Z</time>
      </trkpt>
      <trkpt lat="46.86234" lon="4.92321">
        <ele>167.752</ele>
        <time>2019-10-02T16:39:18.001Z</time>
      </trkpt>
      <trkpt lat="46.86245" lon="4.9232">
        <ele>169.121</ele>
        <time>2019-10-02T16:40:27.001Z</time>
      </trkpt>
      <trkpt lat="46.86252" lon="4.9232">
        <ele>177.699</ele>
        <time>2019-10-02T16:41:36.001Z</time>
      </trkpt>
    </trkseg>
  </trk>
</gpx>